createdAt,value
2022-09-10T00:01:32.218Z,19.40
2022-09-10T00:04:02.032Z,19.40
2022-09-10T00:06:33.165Z,19.50
2022-09-10T00:09:02.280Z,19.60
2022-09-10T00:11:31.093Z,19.50
2022-09-10T00:14:01.965Z,19.60
2022-09-10T00:16:30.997Z,19.50
2022-09-10T00:19:00.147Z,19.40
2022-09-10T00:21:30.040Z,19.40
2022-09-10T00:23:58.569Z,19.30
2022-09-10T00:26:28.660Z,19.30
2022-09-10T00:28:59.585Z,19.30
2022-09-10T00:31:30.455Z,19.30
2022-09-10T00:33:59.934Z,19.30
2022-09-10T00:36:30.526Z,19.30
2022-09-10T00:39:02.467Z,19.50
2022-09-10T00:41:31.569Z,19.40
2022-09-10T00:44:02.368Z,19.30
2022-09-10T00:46:36.481Z,19.40
2022-09-10T00:49:11.170Z,19.30
2022-09-10T00:51:40.456Z,19.30
2022-09-10T00:54:09.451Z,19.20
2022-09-10T00:56:39.122Z,19.10
2022-09-10T00:59:10.387Z,19.10
2022-09-10T01:01:42.100Z,19.10
2022-09-10T01:04:10.938Z,19.00
2022-09-10T01:06:41.640Z,19.10
2022-09-10T01:09:10.960Z,19.20
2022-09-10T01:12:03.727Z,19.10
2022-09-10T01:14:49.072Z,19.10
2022-09-10T01:17:26.961Z,19.10
2022-09-10T01:20:22.027Z,19.10
2022-09-10T01:23:15.716Z,19.00
2022-09-10T01:25:54.009Z,19.00
2022-09-10T01:28:31.751Z,18.90
2022-09-10T01:31:06.528Z,19.00
2022-09-10T01:33:41.851Z,19.00
2022-09-10T01:36:15.053Z,19.00
2022-09-10T01:38:44.075Z,19.00
2022-09-10T01:41:13.907Z,18.90
2022-09-10T01:43:43.594Z,18.90
2022-09-10T01:46:29.925Z,18.90
2022-09-10T01:49:10.178Z,18.90
2022-09-10T01:51:54.976Z,18.90
2022-09-10T01:54:37.613Z,18.90
2022-09-10T01:57:16.141Z,18.80
2022-09-10T01:59:54.811Z,18.80
2022-09-10T02:02:25.963Z,18.80
2022-09-10T02:04:55.651Z,18.90
2022-09-10T02:07:26.887Z,18.90
2022-09-10T02:09:55.835Z,18.90
2022-09-10T02:12:24.723Z,18.90
2022-09-10T02:14:56.609Z,19.00
2022-09-10T02:17:31.101Z,19.00
2022-09-10T02:20:02.136Z,19.00
2022-09-10T02:22:32.785Z,19.00
2022-09-10T02:25:00.991Z,19.00
2022-09-10T02:27:30.003Z,19.10
2022-09-10T02:29:59.887Z,19.00
2022-09-10T02:32:28.277Z,19.00
2022-09-10T02:34:57.117Z,18.90
2022-09-10T02:37:25.292Z,19.10
2022-09-10T02:39:53.501Z,19.10
2022-09-10T02:42:22.222Z,19.00
2022-09-10T02:44:50.831Z,19.00
2022-09-10T02:47:20.309Z,18.90
2022-09-10T02:49:48.493Z,19.10
2022-09-10T02:52:16.708Z,18.90
2022-09-10T02:54:45.322Z,18.80
2022-09-10T02:57:13.681Z,18.90
2022-09-10T02:59:41.973Z,18.90
2022-09-10T03:02:10.154Z,18.70
2022-09-10T03:04:40.248Z,18.80
2022-09-10T03:07:08.495Z,18.90
2022-09-10T03:09:36.656Z,19.00
2022-09-10T03:12:05.260Z,19.00
2022-09-10T03:14:34.185Z,19.10
2022-09-10T03:17:03.837Z,18.90
2022-09-10T03:19:32.378Z,18.80
2022-09-10T03:22:01.844Z,18.90
2022-09-10T03:24:30.396Z,18.80
2022-09-10T03:26:58.706Z,19.00
2022-09-10T03:29:26.978Z,18.80
2022-09-10T03:31:55.372Z,18.90
2022-09-10T03:34:23.992Z,18.90
2022-09-10T03:36:52.295Z,18.80
2022-09-10T03:39:22.032Z,18.80
2022-09-10T03:41:50.316Z,18.70
2022-09-10T03:44:18.546Z,18.80
2022-09-10T03:46:48.681Z,18.60
2022-09-10T03:49:17.238Z,18.80
2022-09-10T03:51:45.489Z,18.80
2022-09-10T03:54:14.081Z,18.70
2022-09-10T03:56:44.196Z,18.70
2022-09-10T03:59:13.400Z,18.70
2022-09-10T04:01:41.820Z,18.70
2022-09-10T04:04:10.471Z,18.70
2022-09-10T04:06:38.978Z,18.60
2022-09-10T04:09:07.497Z,18.70
2022-09-10T04:11:35.959Z,18.60
2022-09-10T04:14:05.843Z,18.70
2022-09-10T04:16:34.229Z,18.70
2022-09-10T04:19:02.453Z,18.60
2022-09-10T04:21:31.556Z,18.80
2022-09-10T04:24:00.738Z,18.70
2022-09-10T04:26:29.162Z,18.70
2022-09-10T04:28:57.556Z,18.80
2022-09-10T04:31:27.121Z,18.60
2022-09-10T04:33:55.492Z,18.60
2022-09-10T04:36:23.860Z,18.70
2022-09-10T04:38:51.971Z,18.70
2022-09-10T04:41:20.154Z,18.60
2022-09-10T04:43:49.091Z,18.70
2022-09-10T04:46:17.743Z,18.70
2022-09-10T04:48:47.505Z,18.70
2022-09-10T04:51:18.155Z,18.80
2022-09-10T04:53:47.490Z,18.70
2022-09-10T04:56:15.803Z,18.60
2022-09-10T04:58:45.367Z,18.60
2022-09-10T05:01:14.325Z,18.70
2022-09-10T05:03:42.735Z,18.60
2022-09-10T05:06:12.350Z,18.50
2022-09-10T05:08:40.861Z,18.60
2022-09-10T05:11:09.025Z,18.60
2022-09-10T05:13:37.251Z,18.60
2022-09-10T05:16:05.656Z,18.60
2022-09-10T05:18:34.239Z,18.50
2022-09-10T05:21:02.568Z,18.60
2022-09-10T05:23:32.572Z,18.60
2022-09-10T05:26:00.751Z,18.60
2022-09-10T05:28:28.926Z,18.60
2022-09-10T05:30:57.382Z,18.70
2022-09-10T05:33:26.162Z,18.70
2022-09-10T05:35:54.501Z,18.60
2022-09-10T05:38:23.997Z,18.70
2022-09-10T05:40:54.015Z,18.60
2022-09-10T05:43:22.556Z,18.60
2022-09-10T05:45:51.933Z,18.60
2022-09-10T05:48:20.445Z,18.60
2022-09-10T05:50:48.602Z,18.50
2022-09-10T05:53:17.346Z,18.50
2022-09-10T05:55:46.230Z,18.60
2022-09-10T05:58:16.146Z,18.50
2022-09-10T06:00:44.298Z,18.40
2022-09-10T06:03:13.007Z,18.50
2022-09-10T06:05:41.157Z,18.50
2022-09-10T06:08:09.516Z,18.60
2022-09-10T06:10:38.237Z,18.40
2022-09-10T06:13:07.175Z,18.40
2022-09-10T06:15:37.926Z,18.50
2022-09-10T06:18:06.310Z,18.50
2022-09-10T06:20:34.672Z,18.50
2022-09-10T06:23:02.815Z,18.30
2022-09-10T06:25:31.143Z,18.30
2022-09-10T06:27:59.500Z,18.30
2022-09-10T06:30:28.292Z,18.30
2022-09-10T06:32:57.991Z,18.40
2022-09-10T06:35:27.125Z,18.50
2022-09-10T06:37:56.045Z,18.50
2022-09-10T06:40:26.561Z,18.40
2022-09-10T06:42:55.409Z,18.50
2022-09-10T06:45:24.114Z,18.50
2022-09-10T06:48:37.158Z,18.50
2022-09-10T06:50:51.577Z,18.40
2022-09-10T06:53:21.325Z,18.50
2022-09-10T06:55:50.465Z,18.50
2022-09-10T06:58:19.844Z,18.40
2022-09-10T07:00:48.548Z,18.50
2022-09-10T07:03:17.118Z,18.50
2022-09-10T07:05:47.354Z,18.50
2022-09-10T07:08:17.545Z,18.50
2022-09-10T07:10:46.652Z,18.60
2022-09-10T07:13:15.177Z,18.60
2022-09-10T07:15:47.494Z,18.50
2022-09-10T07:18:15.948Z,18.60
2022-09-10T07:20:44.561Z,18.70
2022-09-10T07:23:15.139Z,18.70
2022-09-10T07:25:43.672Z,18.70
2022-09-10T07:28:15.139Z,18.70
2022-09-10T07:30:44.192Z,18.70
2022-09-10T07:33:12.823Z,18.70
2022-09-10T07:35:41.275Z,18.60
2022-09-10T07:38:15.519Z,18.70
2022-09-10T07:40:44.812Z,18.80
2022-09-10T07:43:13.068Z,18.80
2022-09-10T07:45:42.231Z,18.80
2022-09-10T07:48:13.234Z,18.80
2022-09-10T07:50:41.463Z,18.90
2022-09-10T07:53:09.956Z,19.00
2022-09-10T07:55:40.089Z,19.00
2022-09-10T07:58:08.296Z,18.90
2022-09-10T08:00:36.835Z,18.90
2022-09-10T08:03:05.720Z,18.90
2022-09-10T08:05:33.985Z,18.90
2022-09-10T08:08:02.422Z,19.10
2022-09-10T08:10:30.684Z,19.20
2022-09-10T08:13:00.856Z,19.10
2022-09-10T08:15:29.099Z,19.00
2022-09-10T08:17:57.311Z,19.00
2022-09-10T08:20:26.660Z,19.10
2022-09-10T08:22:58.353Z,19.10
2022-09-10T08:25:26.703Z,19.20
2022-09-10T08:27:55.209Z,19.30
2022-09-10T08:30:24.784Z,19.20
2022-09-10T08:32:53.121Z,19.10
2022-09-10T08:35:21.686Z,19.10
2022-09-10T08:37:50.084Z,19.10
2022-09-10T08:40:18.480Z,19.10
2022-09-10T08:42:50.107Z,19.30
2022-09-10T08:45:23.339Z,19.30
2022-09-10T08:47:59.833Z,19.50
2022-09-10T08:50:38.714Z,19.50
2022-09-10T08:53:25.791Z,19.40
2022-09-10T08:55:58.104Z,19.30
2022-09-10T08:58:31.862Z,19.40
2022-09-10T09:01:04.803Z,19.40
2022-09-10T09:03:38.747Z,19.60
2022-09-10T09:06:12.971Z,19.50
2022-09-10T09:08:48.629Z,19.50
2022-09-10T09:11:24.012Z,19.50
2022-09-10T09:14:07.587Z,19.40
2022-09-10T09:16:48.548Z,19.30
2022-09-10T09:19:32.003Z,19.30
2022-09-10T09:22:11.816Z,19.20
2022-09-10T09:24:50.264Z,19.40
2022-09-10T09:27:22.892Z,19.50
2022-09-10T09:29:56.113Z,19.50
2022-09-10T09:32:25.977Z,19.40
2022-09-10T09:34:58.366Z,19.50
2022-09-10T09:37:29.447Z,19.50
2022-09-10T09:40:09.201Z,19.50
2022-09-10T09:42:43.352Z,19.40
2022-09-10T09:45:22.258Z,19.50
2022-09-10T09:47:51.168Z,19.50
2022-09-10T09:50:20.904Z,19.50
2022-09-10T09:52:49.777Z,19.60
2022-09-10T09:55:28.287Z,19.70
2022-09-10T09:58:30.697Z,19.60
2022-09-10T10:01:16.465Z,19.60
2022-09-10T10:03:53.469Z,19.70
2022-09-10T10:06:25.973Z,19.60
2022-09-10T10:09:00.753Z,19.50
2022-09-10T10:11:45.807Z,19.60
2022-09-10T10:14:22.945Z,19.60
2022-09-10T10:16:57.298Z,19.40
2022-09-10T10:19:34.124Z,19.50
2022-09-10T10:22:22.683Z,19.60
2022-09-10T10:24:54.036Z,19.50
2022-09-10T10:27:30.247Z,19.50
2022-09-10T10:30:01.664Z,19.40
2022-09-10T10:32:44.832Z,19.50
2022-09-10T10:35:29.354Z,19.50
2022-09-10T10:38:31.383Z,19.60
2022-09-10T10:41:13.060Z,19.60
2022-09-10T10:43:51.567Z,19.70
2022-09-10T10:46:22.405Z,19.70
2022-09-10T10:49:03.518Z,19.70
2022-09-10T10:51:42.014Z,19.70
2022-09-10T10:54:32.974Z,19.70
2022-09-10T10:57:11.361Z,19.70
2022-09-10T10:59:55.632Z,19.60
2022-09-10T11:02:41.274Z,19.70
2022-09-10T11:05:21.931Z,19.60
2022-09-10T11:07:50.719Z,19.60
2022-09-10T11:10:25.877Z,19.60
2022-09-10T11:12:58.892Z,19.70
2022-09-10T11:15:33.558Z,19.70
2022-09-10T11:18:08.603Z,19.70
2022-09-10T11:20:43.144Z,19.70
2022-09-10T11:23:22.592Z,19.90
2022-09-10T11:25:57.159Z,19.80
2022-09-10T11:28:29.126Z,19.90
2022-09-10T11:31:02.016Z,19.90
2022-09-10T11:33:36.259Z,19.90
2022-09-10T11:36:11.517Z,20.00
2022-09-10T11:38:48.218Z,20.10
2022-09-10T11:41:23.681Z,19.90
2022-09-10T11:43:58.218Z,19.90
2022-09-10T11:46:31.896Z,19.90
2022-09-10T11:49:04.023Z,19.90
2022-09-10T11:51:34.984Z,19.90
2022-09-10T11:54:05.027Z,20.00
2022-09-10T11:56:46.172Z,19.90
2022-09-10T11:59:42.577Z,20.20
2022-09-10T12:02:39.426Z,20.20
2022-09-10T12:05:19.902Z,20.20
2022-09-10T12:07:56.943Z,20.30
2022-09-10T12:10:33.144Z,20.30
2022-09-10T12:13:09.247Z,20.30
2022-09-10T12:15:38.450Z,20.30
2022-09-10T12:18:13.995Z,20.50
2022-09-10T12:20:48.822Z,20.40
2022-09-10T12:23:19.505Z,20.30
2022-09-10T12:25:58.946Z,20.20
2022-09-10T12:29:00.990Z,20.20
2022-09-10T12:31:29.315Z,20.30
2022-09-10T12:34:18.556Z,20.50
2022-09-10T12:37:23.991Z,20.40
2022-09-10T12:40:25.034Z,20.10
2022-09-10T12:42:53.591Z,20.20
2022-09-10T12:45:57.662Z,20.50
2022-09-10T12:48:27.744Z,20.30
2022-09-10T12:51:00.643Z,20.60
2022-09-10T12:54:07.162Z,20.80
2022-09-10T12:57:03.802Z,20.80
2022-09-10T13:00:13.029Z,20.80
2022-09-10T13:02:52.056Z,20.90
2022-09-10T13:05:27.070Z,21.00
2022-09-10T13:08:08.965Z,20.90
2022-09-10T13:10:37.625Z,20.80
2022-09-10T13:13:09.530Z,20.70
2022-09-10T13:15:41.632Z,20.70
2022-09-10T13:18:28.228Z,20.60
2022-09-10T13:20:58.680Z,20.50
2022-09-10T13:23:48.777Z,20.40
2022-09-10T13:26:49.488Z,20.30
2022-09-10T13:29:34.428Z,20.50
2022-09-10T13:32:08.125Z,20.30
2022-09-10T13:35:05.685Z,20.30
2022-09-10T13:38:01.393Z,20.30
2022-09-10T13:40:46.737Z,20.00
2022-09-10T13:43:30.788Z,20.10
2022-09-10T13:46:03.826Z,20.00
2022-09-10T13:48:40.697Z,20.20
2022-09-10T13:51:23.379Z,20.10
2022-09-10T13:53:53.878Z,20.20
2022-09-10T13:56:26.363Z,20.40
2022-09-10T13:59:00.565Z,20.30
2022-09-10T14:01:49.351Z,20.30
2022-09-10T14:04:28.390Z,20.30
2022-09-10T14:07:03.917Z,20.30
2022-09-10T14:09:34.648Z,20.30
2022-09-10T14:12:05.455Z,20.30
2022-09-10T14:14:39.455Z,20.20
2022-09-10T14:17:13.096Z,20.10
2022-09-10T14:19:45.890Z,20.00
2022-09-10T14:22:17.323Z,20.10
2022-09-10T14:24:52.559Z,20.20
2022-09-10T14:27:25.949Z,20.40
2022-09-10T14:29:56.374Z,20.40
2022-09-10T14:32:30.910Z,20.30
2022-09-10T14:34:59.726Z,20.30
2022-09-10T14:37:33.768Z,20.10
2022-09-10T14:40:16.789Z,20.10
2022-09-10T14:42:45.654Z,20.20
2022-09-10T14:45:39.404Z,20.20
2022-09-10T14:48:33.554Z,20.30
2022-09-10T14:51:20.498Z,20.20
2022-09-10T14:53:53.000Z,20.30
2022-09-10T14:56:28.257Z,20.30
2022-09-10T14:59:00.469Z,20.10
2022-09-10T15:01:29.810Z,20.10
2022-09-10T15:03:59.343Z,20.10
2022-09-10T15:06:27.749Z,20.20
2022-09-10T15:08:57.119Z,20.00
2022-09-10T15:11:29.014Z,19.90
2022-09-10T15:13:59.300Z,20.00
2022-09-10T15:16:28.258Z,20.10
2022-09-10T15:18:58.199Z,20.10
2022-09-10T15:21:27.547Z,20.10
2022-09-10T15:23:56.369Z,20.30
2022-09-10T15:26:26.164Z,20.20
2022-09-10T15:28:54.414Z,20.10
2022-09-10T15:31:23.340Z,20.10
2022-09-10T15:33:54.391Z,20.20
2022-09-10T15:36:22.778Z,20.20
2022-09-10T15:38:52.435Z,20.40
2022-09-10T15:41:21.020Z,20.30
2022-09-10T15:43:50.658Z,20.10
2022-09-10T15:46:21.012Z,20.20
2022-09-10T15:48:49.985Z,20.30
2022-09-10T15:51:21.443Z,20.50
2022-09-10T15:53:50.736Z,20.50
2022-09-10T15:56:20.399Z,20.30
2022-09-10T15:58:55.488Z,20.30
2022-09-10T16:01:25.108Z,20.20
2022-09-10T16:03:56.681Z,20.20
2022-09-10T16:06:27.329Z,20.30
2022-09-10T16:08:57.837Z,20.50
2022-09-10T16:11:26.445Z,20.40
2022-09-10T16:14:02.185Z,20.50
2022-09-10T16:16:33.057Z,20.40
2022-09-10T16:19:01.789Z,20.40
2022-09-10T16:21:32.160Z,20.50
2022-09-10T16:24:02.243Z,20.30
2022-09-10T16:26:31.913Z,20.30
2022-09-10T16:29:02.951Z,20.30
2022-09-10T16:31:32.346Z,20.30
2022-09-10T16:34:03.567Z,20.40
2022-09-10T16:36:33.016Z,20.50
2022-09-10T16:39:02.678Z,20.50
2022-09-10T16:41:32.961Z,20.50
2022-09-10T16:44:02.809Z,20.60
2022-09-10T16:46:31.289Z,20.50
2022-09-10T16:48:59.760Z,20.50
2022-09-10T16:51:29.085Z,20.50
2022-09-10T16:54:02.300Z,20.50
2022-09-10T16:56:33.764Z,20.50
2022-09-10T16:59:03.704Z,20.60
2022-09-10T17:01:32.137Z,20.70
2022-09-10T17:04:00.766Z,20.80
2022-09-10T17:06:29.819Z,20.80
2022-09-10T17:08:59.831Z,20.80
2022-09-10T17:11:31.123Z,20.80
2022-09-10T17:14:01.286Z,20.80
2022-09-10T17:16:32.767Z,20.80
2022-09-10T17:19:03.211Z,20.80
2022-09-10T17:21:34.313Z,20.80
2022-09-10T17:24:04.025Z,20.70
2022-09-10T17:26:33.807Z,20.60
2022-09-10T17:29:03.146Z,20.60
2022-09-10T17:31:45.878Z,20.60
2022-09-10T17:34:15.447Z,20.60
2022-09-10T17:36:45.372Z,20.60
2022-09-10T17:39:14.051Z,20.70
2022-09-10T17:41:43.025Z,20.70
2022-09-10T17:44:12.521Z,20.70
2022-09-10T17:46:42.761Z,20.70
2022-09-10T17:49:14.868Z,20.70
2022-09-10T17:51:43.897Z,20.60
2022-09-10T17:54:18.297Z,20.80
2022-09-10T17:56:48.385Z,20.70
2022-09-10T17:59:16.722Z,20.70
2022-09-10T18:01:46.380Z,20.70
2022-09-10T18:04:15.879Z,20.70
2022-09-10T18:06:47.824Z,20.70
2022-09-10T18:09:18.665Z,20.70
2022-09-10T18:11:47.426Z,20.70
2022-09-10T18:14:18.660Z,20.60
2022-09-10T18:16:48.277Z,20.60
2022-09-10T18:19:18.047Z,20.60
2022-09-10T18:21:47.320Z,20.60
2022-09-10T18:24:17.577Z,20.50
2022-09-10T18:26:47.772Z,20.40
2022-09-10T18:29:18.973Z,20.50
2022-09-10T18:31:50.122Z,20.50
2022-09-10T18:34:23.165Z,20.40
2022-09-10T18:36:54.449Z,20.40
2022-09-10T18:39:24.174Z,20.50
2022-09-10T18:41:52.448Z,20.40
2022-09-10T18:44:23.079Z,20.50
2022-09-10T18:46:53.754Z,20.40
2022-09-10T18:49:24.500Z,20.40
2022-09-10T18:51:53.755Z,20.30
2022-09-10T18:54:23.237Z,20.20
2022-09-10T18:56:53.317Z,20.30
2022-09-10T18:59:23.268Z,20.20
2022-09-10T19:01:55.793Z,20.20
2022-09-10T19:04:26.435Z,20.20
2022-09-10T19:06:55.634Z,20.30
2022-09-10T19:09:25.082Z,20.20
2022-09-10T19:11:55.376Z,20.20
2022-09-10T19:14:26.370Z,20.20
2022-09-10T19:16:57.502Z,20.10
2022-09-10T19:19:27.477Z,20.10
2022-09-10T19:21:59.406Z,20.20
2022-09-10T19:24:50.981Z,20.20
2022-09-10T19:27:16.961Z,20.20
2022-09-10T19:29:47.268Z,20.30
2022-09-10T19:32:17.256Z,20.30
2022-09-10T19:34:46.047Z,20.20
2022-09-10T19:37:14.655Z,20.10
2022-09-10T19:39:44.429Z,20.10
2022-09-10T19:42:13.329Z,20.20
2022-09-10T19:44:41.839Z,20.20
2022-09-10T19:47:10.121Z,20.20
2022-09-10T19:49:40.112Z,20.10
2022-09-10T19:52:08.340Z,20.10
2022-09-10T19:54:36.746Z,20.10
2022-09-10T19:57:05.421Z,20.20
2022-09-10T19:59:33.633Z,20.10
2022-09-10T20:02:02.097Z,20.10
2022-09-10T20:04:30.734Z,20.20
2022-09-10T20:07:00.454Z,20.10
2022-09-10T20:09:28.905Z,20.10
2022-09-10T20:11:57.197Z,20.10
2022-09-10T20:14:26.162Z,20.00
2022-09-10T20:16:54.674Z,20.10
2022-09-10T20:19:22.949Z,20.10
2022-09-10T20:21:51.817Z,20.10
2022-09-10T20:24:22.127Z,20.10
2022-09-10T20:26:50.552Z,20.00
2022-09-10T20:29:19.524Z,20.00
2022-09-10T20:31:48.682Z,19.90
2022-09-10T20:34:19.455Z,19.90
2022-09-10T20:36:48.717Z,19.90
2022-09-10T20:39:18.220Z,19.90
2022-09-10T20:41:48.274Z,19.90
2022-09-10T20:44:18.343Z,19.90
2022-09-10T20:46:46.705Z,19.80
2022-09-10T20:49:16.515Z,19.90
2022-09-10T20:51:45.776Z,19.90
2022-09-10T20:54:17.248Z,19.90
2022-09-10T20:56:45.944Z,19.80
2022-09-10T20:59:16.835Z,19.80
2022-09-10T21:01:46.453Z,19.90
2022-09-10T21:04:15.217Z,19.80
2022-09-10T21:06:43.776Z,19.80
2022-09-10T21:09:13.023Z,19.80
2022-09-10T21:11:41.356Z,19.80
2022-09-10T21:14:09.989Z,19.80
2022-09-10T21:16:41.356Z,19.80
2022-09-10T21:19:11.860Z,19.80
2022-09-10T21:21:41.268Z,19.80
2022-09-10T21:24:13.073Z,19.80
2022-09-10T21:26:43.649Z,19.80
2022-09-10T21:29:14.355Z,19.80
2022-09-10T21:31:45.463Z,19.90
2022-09-10T21:34:14.766Z,19.90
2022-09-10T21:36:43.692Z,19.90
2022-09-10T21:39:14.840Z,19.90
2022-09-10T21:41:45.253Z,19.80
2022-09-10T21:44:15.524Z,19.90
2022-09-10T21:46:46.013Z,19.80
2022-09-10T21:49:14.724Z,19.80
2022-09-10T21:51:43.267Z,19.90
2022-09-10T21:54:15.523Z,19.80
2022-09-10T21:56:43.906Z,19.80
2022-09-10T21:59:13.071Z,19.80
2022-09-10T22:01:43.260Z,19.80
2022-09-10T22:04:13.795Z,19.70
2022-09-10T22:06:42.066Z,19.70
2022-09-10T22:09:12.432Z,19.70
2022-09-10T22:11:42.399Z,19.70
2022-09-10T22:14:15.125Z,19.70
2022-09-10T22:16:44.013Z,19.70
2022-09-10T22:19:18.560Z,19.70
2022-09-10T22:21:47.312Z,19.70
2022-09-10T22:24:18.446Z,19.70
2022-09-10T22:26:47.520Z,19.70
2022-09-10T22:29:20.495Z,19.60
2022-09-10T22:31:49.626Z,19.60
2022-09-10T22:34:20.695Z,19.60
2022-09-10T22:36:49.638Z,19.60
2022-09-10T22:39:19.560Z,19.60
2022-09-10T22:41:48.899Z,19.60
2022-09-10T22:44:19.227Z,19.60
2022-09-10T22:46:47.801Z,19.60
2022-09-10T22:49:17.203Z,19.60
2022-09-10T22:51:46.825Z,19.60
2022-09-10T22:54:16.607Z,19.60
2022-09-10T22:56:45.468Z,19.60
2022-09-10T22:59:14.946Z,19.60
2022-09-10T23:01:47.330Z,19.60
2022-09-10T23:04:16.538Z,19.60
2022-09-10T23:06:45.966Z,19.60
2022-09-10T23:09:16.016Z,19.50
2022-09-10T23:11:45.118Z,19.50
2022-09-10T23:14:15.616Z,19.60
2022-09-10T23:16:46.205Z,19.60
2022-09-10T23:19:16.109Z,19.50
2022-09-10T23:21:48.734Z,19.60
2022-09-10T23:24:20.295Z,19.60
2022-09-10T23:26:48.661Z,19.60
2022-09-10T23:29:17.739Z,19.50
2022-09-10T23:31:47.688Z,19.50
2022-09-10T23:34:18.133Z,19.50
2022-09-10T23:36:48.963Z,19.50
2022-09-10T23:39:19.754Z,19.50
2022-09-10T23:41:48.208Z,19.50
2022-09-10T23:44:16.924Z,19.40
2022-09-10T23:46:45.740Z,19.40
2022-09-10T23:49:14.203Z,19.50
2022-09-10T23:51:42.577Z,19.50
2022-09-10T23:54:13.101Z,19.50
2022-09-10T23:56:41.685Z,19.50
2022-09-10T23:59:11.004Z,19.40
